Time;durP1;ratioP1;P1;durP2;ratioP2;P2;SDS_P1;SDS_P2;PMS_P1;PMS_P2;Temp;Humidity;BMP_temperature;BMP_pressure;BME280_temperature;BME280_humidity;BME280_pressure;Samples;Min_cycle;Max_cycle;Signal;HPM_P1;HPM_P2
2021/01/23 00:00:23;;;;;;;7.70;6.38;;;6.80;99.90;;;;;;5104543;28;20283;-76
2021/01/23 00:02:49;;;;;;;10.82;8.88;;;6.70;99.90;;;;;;5089272;28;21061;-76
2021/01/23 00:05:16;;;;;;;11.55;7.78;;;6.80;99.90;;;;;;5107998;28;20258;-76
2021/01/23 00:07:42;;;;;;;12.13;8.75;;;6.80;99.90;;;;;;5109395;28;20273;-75
2021/01/23 00:10:09;;;;;;;9.98;7.63;;;6.80;99.90;;;;;;5097003;28;20211;-75
2021/01/23 00:12:36;;;;;;;13.52;8.50;;;6.70;99.90;;;;;;5111206;28;20228;-75
2021/01/23 00:15:04;;;;;;;10.98;8.32;;;6.70;99.90;;;;;;5109885;28;20192;-75
2021/01/23 00:17:30;;;;;;;14.13;9.82;;;6.80;99.90;;;;;;5095542;28;20205;-76
2021/01/23 00:19:57;;;;;;;9.20;8.30;;;6.70;99.90;;;;;;5110350;28;20192;-76
2021/01/23 00:22:23;;;;;;;10.98;8.15;;;6.70;99.90;;;;;;5110971;28;20245;-75
2021/01/23 00:24:49;;;;;;;11.00;8.50;;;6.70;99.90;;;;;;5108632;28;20205;-76
2021/01/23 00:27:16;;;;;;;9.60;8.50;;;6.70;99.90;;;;;;5111925;28;20196;-76
2021/01/23 00:29:43;;;;;;;9.65;7.47;;;6.70;99.90;;;;;;5105642;28;20196;-77
2021/01/23 00:32:09;;;;;;;12.55;8.48;;;6.60;99.90;;;;;;5103341;28;20210;-76
2021/01/23 00:34:35;;;;;;;12.38;9.25;;;6.60;99.90;;;;;;5108867;28;20189;-76
2021/01/23 00:37:02;;;;;;;15.07;8.80;;;6.70;99.90;;;;;;5107286;28;20204;-76
2021/01/23 00:39:28;;;;;;;15.23;9.88;;;6.70;99.90;;;;;;5096510;28;20506;-75
2021/01/23 00:41:54;;;;;;;16.02;9.25;;;6.60;99.90;;;;;;5110058;28;20203;-76
2021/01/23 00:44:20;;;;;;;10.63;8.35;;;6.60;99.90;;;;;;5111117;28;20254;-76
2021/01/23 00:46:47;;;;;;;10.15;8.60;;;6.60;99.90;;;;;;5093775;28;20209;-76
2021/01/23 00:49:14;;;;;;;10.38;9.27;;;6.60;99.90;;;;;;5095269;28;20270;-76
2021/01/23 00:51:40;;;;;;;12.07;8.20;;;6.60;99.90;;;;;;5108294;28;20691;-76
2021/01/23 00:54:06;;;;;;;10.27;8.13;;;6.60;99.90;;;;;;5107811;28;20665;-76
2021/01/23 00:56:32;;;;;;;9.32;7.88;;;6.60;99.90;;;;;;5091247;28;20197;-76
2021/01/23 00:58:59;;;;;;;11.20;9.15;;;6.60;99.90;;;;;;5107008;28;20193;-76
2021/01/23 01:01:25;;;;;;;10.63;9.52;;;6.60;99.90;;;;;;5107994;28;20196;-75
2021/01/23 01:03:52;;;;;;;11.63;9.10;;;6.60;99.90;;;;;;5110135;28;20204;-76
2021/01/23 01:06:18;;;;;;;10.60;8.95;;;6.60;99.90;;;;;;5110954;28;20317;-75
2021/01/23 01:08:44;;;;;;;10.52;8.40;;;6.50;99.90;;;;;;5101442;28;20647;-77
2021/01/23 01:11:11;;;;;;;9.65;8.63;;;6.50;99.90;;;;;;5110477;28;20209;-76
2021/01/23 01:13:37;;;;;;;10.45;8.10;;;6.50;99.90;;;;;;5110345;28;20224;-76
2021/01/23 01:16:03;;;;;;;9.95;7.85;;;6.50;99.90;;;;;;5105596;28;20198;-75
2021/01/23 01:18:30;;;;;;;11.52;9.98;;;6.50;99.90;;;;;;5094353;28;20208;-76
2021/01/23 01:20:57;;;;;;;10.77;8.88;;;6.50;99.90;;;;;;5110207;28;20201;-76
2021/01/23 01:23:23;;;;;;;13.32;10.00;;;6.50;99.90;;;;;;5109857;28;20529;-76
2021/01/23 01:25:49;;;;;;;12.75;9.38;;;6.50;99.90;;;;;;5109285;28;20248;-75
2021/01/23 01:28:16;;;;;;;9.75;8.80;;;6.50;99.90;;;;;;5109845;28;20193;-75
2021/01/23 01:30:42;;;;;;;13.95;9.52;;;6.50;99.90;;;;;;5099657;28;20215;-76
2021/01/23 01:33:09;;;;;;;14.20;9.43;;;6.50;99.90;;;;;;5109643;28;20220;-76
2021/01/23 01:35:35;;;;;;;11.80;9.20;;;6.50;99.90;;;;;;5104390;28;20197;-76
2021/01/23 01:38:02;;;;;;;12.43;10.25;;;6.40;99.90;;;;;;5102639;28;20201;-76
2021/01/23 01:40:29;;;;;;;14.27;9.25;;;6.40;99.90;;;;;;5111005;28;20200;-76
2021/01/23 01:42:56;;;;;;;13.25;9.90;;;6.40;99.90;;;;;;5111202;28;20249;-76
2021/01/23 01:45:23;;;;;;;14.93;9.82;;;6.50;99.90;;;;;;5107778;28;20227;-76
2021/01/23 01:47:49;;;;;;;9.70;8.45;;;6.50;99.90;;;;;;5094556;28;20205;-76
2021/01/23 01:50:15;;;;;;;9.68;7.72;;;6.50;99.90;;;;;;5098708;28;20198;-76
2021/01/23 01:52:43;;;;;;;10.32;8.90;;;6.40;99.90;;;;;;5110038;28;20231;-76
2021/01/23 01:55:32;;;;;;;11.75;8.95;;;6.40;99.90;;;;;;5104628;28;20627;-76
2021/01/23 01:57:58;;;;;;;12.93;9.20;;;6.40;99.90;;;;;;5109074;28;20200;-76
2021/01/23 02:00:25;;;;;;;10.65;8.48;;;6.40;99.90;;;;;;5108246;28;20201;-76
2021/01/23 02:03:14;;;;;;;10.70;9.23;;;6.40;99.90;;;;;;5100818;28;20197;-75
2021/01/23 02:05:48;;;;;;;10.48;8.73;;;6.40;99.90;;;;;;5096911;28;20212;-75
2021/01/23 02:08:24;;;;;;;12.43;8.80;;;6.40;99.90;;;;;;5103540;28;20193;-75
2021/01/23 02:11:01;;;;;;;13.43;9.63;;;6.40;99.90;;;;;;5099845;28;20198;-75
2021/01/23 02:13:30;;;;;;;12.00;9.02;;;6.50;99.90;;;;;;5091162;28;20635;-75
2021/01/23 02:16:00;;;;;;;11.35;9.63;;;6.50;99.90;;;;;;5110477;28;20686;-75
2021/01/23 02:18:34;;;;;;;12.35;9.93;;;6.40;99.90;;;;;;5110013;28;20197;-75
2021/01/23 02:21:35;;;;;;;9.23;8.38;;;6.40;99.90;;;;;;5108560;28;20201;-75
2021/01/23 02:24:05;;;;;;;11.80;8.90;;;6.40;99.90;;;;;;5112704;28;20197;-75
2021/01/23 02:26:45;;;;;;;10.43;9.43;;;6.40;99.90;;;;;;5095461;28;20575;-75
2021/01/23 02:29:16;;;;;;;12.40;8.50;;;6.30;99.90;;;;;;5112093;28;20208;-75
2021/01/23 02:31:46;;;;;;;9.90;8.55;;;6.30;99.90;;;;;;5112393;28;20220;-75
2021/01/23 02:34:21;;;;;;;12.30;9.10;;;6.30;99.90;;;;;;5104858;28;20185;-75
2021/01/23 02:36:49;;;;;;;12.73;8.68;;;6.30;99.90;;;;;;5102128;28;20657;-76
2021/01/23 02:39:15;;;;;;;11.93;8.80;;;6.30;99.90;;;;;;5093801;28;20197;-75
2021/01/23 02:41:43;;;;;;;10.02;8.52;;;6.30;99.90;;;;;;5100812;28;20193;-75
2021/01/23 02:44:10;;;;;;;8.68;7.78;;;6.30;99.90;;;;;;5107665;28;20192;-75
2021/01/23 02:46:36;;;;;;;10.77;8.82;;;6.30;99.90;;;;;;5101990;28;20260;-76
2021/01/23 02:49:04;;;;;;;8.57;7.65;;;6.30;99.90;;;;;;5108118;28;20203;-77
2021/01/23 02:51:36;;;;;;;9.60;7.57;;;6.30;99.90;;;;;;5111692;28;20223;-76
2021/01/23 02:54:07;;;;;;;9.82;8.90;;;6.30;99.90;;;;;;5106496;28;20190;-76
2021/01/23 02:56:37;;;;;;;10.65;8.10;;;6.30;99.90;;;;;;5093601;28;20186;-76
2021/01/23 02:59:05;;;;;;;8.52;7.22;;;6.30;99.90;;;;;;5109916;28;20201;-75
2021/01/23 03:01:35;;;;;;;10.73;8.60;;;6.30;99.90;;;;;;5104376;28;20536;-76
2021/01/23 03:04:03;;;;;;;11.85;8.35;;;6.30;99.90;;;;;;5113621;28;20185;-76
2021/01/23 03:06:31;;;;;;;9.52;8.13;;;6.30;99.90;;;;;;5111101;28;20246;-76
2021/01/23 03:08:58;;;;;;;12.38;7.43;;;6.30;99.90;;;;;;5106510;28;20197;-75
2021/01/23 03:11:24;;;;;;;12.23;8.60;;;6.30;99.90;;;;;;5108921;28;20248;-75
2021/01/23 03:13:51;;;;;;;13.13;8.27;;;6.30;99.90;;;;;;5106889;28;20196;-75
2021/01/23 03:16:17;;;;;;;8.27;7.38;;;6.30;99.90;;;;;;5104668;28;20197;-74
2021/01/23 03:18:43;;;;;;;12.30;7.93;;;6.20;99.90;;;;;;5109291;28;20197;-74
2021/01/23 03:21:09;;;;;;;9.80;8.57;;;6.20;99.90;;;;;;5107608;28;20193;-74
2021/01/23 03:23:36;;;;;;;9.30;7.32;;;6.30;99.90;;;;;;5113022;28;20200;-75
2021/01/23 03:26:03;;;;;;;8.77;6.82;;;6.20;99.90;;;;;;5106422;28;20196;-74
2021/01/23 03:28:29;;;;;;;9.68;7.60;;;6.20;99.90;;;;;;5113040;28;20713;-74
2021/01/23 03:30:55;;;;;;;12.77;7.30;;;6.20;99.90;;;;;;5110652;28;20374;-74
2021/01/23 03:33:21;;;;;;;8.43;7.60;;;6.20;99.90;;;;;;5104979;28;20220;-74
2021/01/23 03:35:48;;;;;;;8.32;7.38;;;6.20;99.90;;;;;;5107803;28;20264;-74
2021/01/23 03:38:14;;;;;;;8.15;7.32;;;6.20;99.90;;;;;;5112488;28;20197;-74
2021/01/23 03:40:41;;;;;;;8.00;6.20;;;6.20;99.90;;;;;;5108422;28;20200;-77
2021/01/23 03:43:07;;;;;;;8.55;7.05;;;6.20;99.90;;;;;;5111144;28;20194;-77
2021/01/23 03:45:34;;;;;;;8.02;7.10;;;6.20;99.90;;;;;;5109513;28;20267;-76
2021/01/23 03:48:00;;;;;;;7.82;7.03;;;6.20;99.90;;;;;;5098947;28;20189;-76
2021/01/23 03:50:28;;;;;;;8.93;6.63;;;6.20;99.90;;;;;;5103342;28;20201;-76
2021/01/23 03:52:54;;;;;;;9.23;6.10;;;6.20;99.90;;;;;;5100895;28;20312;-75
2021/01/23 03:55:20;;;;;;;10.82;7.78;;;6.20;99.90;;;;;;5095027;28;20567;-76
2021/01/23 03:57:47;;;;;;;9.80;7.22;;;6.10;99.90;;;;;;5090211;28;20200;-76
2021/01/23 04:00:15;;;;;;;9.63;7.07;;;6.10;99.90;;;;;;5091611;28;20209;-76
2021/01/23 04:02:41;;;;;;;15.70;6.82;;;6.10;99.90;;;;;;5108713;28;20196;-77
2021/01/23 04:05:09;;;;;;;6.32;5.45;;;6.10;99.90;;;;;;5107628;28;20197;-76
2021/01/23 04:07:35;;;;;;;7.78;6.43;;;6.10;99.90;;;;;;5108156;28;20556;-76
2021/01/23 04:10:03;;;;;;;8.57;6.50;;;6.00;99.90;;;;;;5108382;28;20189;-77
2021/01/23 04:12:29;;;;;;;7.00;6.30;;;6.10;99.90;;;;;;5107163;28;20265;-75
2021/01/23 04:14:56;;;;;;;7.43;5.93;;;6.00;99.90;;;;;;5105124;28;20189;-75
2021/01/23 04:17:22;;;;;;;7.72;6.47;;;6.10;99.90;;;;;;5107992;28;20644;-75
2021/01/23 04:19:49;;;;;;;10.52;6.15;;;6.10;99.90;;;;;;5108361;28;20324;-77
2021/01/23 04:22:15;;;;;;;7.60;6.85;;;6.10;99.90;;;;;;5106821;28;20242;-77
2021/01/23 04:24:41;;;;;;;9.85;7.07;;;6.10;99.90;;;;;;5106063;28;20197;-76
2021/01/23 04:27:08;;;;;;;6.70;5.78;;;6.10;99.90;;;;;;5107227;28;20237;-77
2021/01/23 04:29:34;;;;;;;6.05;5.45;;;6.10;99.90;;;;;;5106838;28;20534;-77
2021/01/23 04:32:01;;;;;;;6.53;5.82;;;6.10;99.90;;;;;;5108050;28;20235;-76
2021/01/23 04:34:27;;;;;;;7.80;6.63;;;6.10;99.90;;;;;;5109652;28;20197;-76
2021/01/23 04:36:53;;;;;;;10.20;6.07;;;6.10;99.90;;;;;;5091489;28;20202;-76
2021/01/23 04:39:20;;;;;;;7.47;6.78;;;6.10;99.90;;;;;;5099624;28;20562;-76
2021/01/23 04:41:46;;;;;;;10.52;6.20;;;6.10;99.90;;;;;;5101100;28;20189;-76
2021/01/23 04:44:12;;;;;;;7.82;6.50;;;6.10;99.90;;;;;;5096239;28;20188;-76
2021/01/23 04:46:39;;;;;;;6.93;5.75;;;6.10;99.90;;;;;;5108984;28;20236;-76
2021/01/23 04:49:06;;;;;;;7.40;6.70;;;6.10;99.90;;;;;;5105948;28;20204;-76
2021/01/23 04:51:32;;;;;;;6.50;5.28;;;6.10;99.90;;;;;;5099169;28;20212;-76
2021/01/23 04:53:59;;;;;;;7.72;6.53;;;6.00;99.90;;;;;;5111715;28;20201;-77
2021/01/23 04:56:27;;;;;;;6.82;5.88;;;6.00;99.90;;;;;;5107824;28;20207;-77
2021/01/23 04:58:53;;;;;;;7.43;6.03;;;5.90;99.90;;;;;;5106018;28;20208;-76
2021/01/23 05:01:20;;;;;;;7.55;5.20;;;6.00;99.90;;;;;;5109910;28;20188;-76
2021/01/23 05:03:59;;;;;;;7.50;6.07;;;6.00;99.90;;;;;;5111583;28;20196;-76
2021/01/23 05:06:26;;;;;;;7.68;5.63;;;6.00;99.90;;;;;;5105880;28;20266;-76
2021/01/23 05:08:53;;;;;;;7.57;5.40;;;6.00;99.90;;;;;;5107624;28;20622;-76
2021/01/23 05:11:19;;;;;;;6.53;5.95;;;6.00;99.90;;;;;;5108361;28;20245;-76
2021/01/23 05:14:10;;;;;;;7.80;5.93;;;6.00;99.90;;;;;;5107315;28;20540;-75
2021/01/23 05:16:37;;;;;;;6.57;5.70;;;6.00;99.90;;;;;;5103693;28;20652;-75
2021/01/23 05:19:03;;;;;;;9.80;6.53;;;6.00;99.90;;;;;;5107260;28;20590;-75
2021/01/23 05:21:31;;;;;;;7.95;7.07;;;6.00;99.90;;;;;;5106048;28;20200;-76
2021/01/23 05:24:09;;;;;;;8.70;6.47;;;6.00;99.90;;;;;;5106887;28;20200;-76
2021/01/23 05:26:35;;;;;;;9.63;6.50;;;6.00;99.90;;;;;;5106444;28;20283;-75
2021/01/23 05:29:10;;;;;;;6.65;5.93;;;6.00;99.90;;;;;;5104020;28;20203;-75
2021/01/23 05:31:36;;;;;;;7.07;5.55;;;6.00;99.90;;;;;;5103631;28;20540;-74
2021/01/23 05:34:29;;;;;;;7.57;5.43;;;5.90;99.90;;;;;;5104980;28;20253;-75
2021/01/23 05:36:57;;;;;;;9.18;5.72;;;5.90;99.90;;;;;;5104818;28;20252;-76
2021/01/23 05:39:45;;;;;;;7.72;6.25;;;5.90;99.90;;;;;;5106812;28;20193;-75
2021/01/23 05:42:12;;;;;;;7.05;4.80;;;6.00;99.90;;;;;;5105834;28;20708;-75
2021/01/23 05:44:38;;;;;;;7.47;5.82;;;5.90;99.90;;;;;;5105323;28;20203;-76
2021/01/23 05:47:25;;;;;;;6.85;6.15;;;5.90;99.90;;;;;;5106062;28;20540;-77
2021/01/23 05:49:51;;;;;;;11.23;7.18;;;5.90;99.90;;;;;;5107093;28;20197;-75
2021/01/23 05:52:19;;;;;;;6.57;5.97;;;5.90;99.90;;;;;;5104536;28;20208;-74
2021/01/23 05:54:45;;;;;;;6.35;5.20;;;5.90;99.90;;;;;;5100896;28;20224;-80
2021/01/23 05:57:11;;;;;;;11.75;5.53;;;5.90;99.90;;;;;;5091874;28;21704;-79
2021/01/23 05:59:40;;;;;;;6.20;5.60;;;5.90;99.90;;;;;;5099923;28;20522;-79
2021/01/23 06:02:09;;;;;;;7.13;5.43;;;5.90;99.90;;;;;;5108356;27;20280;-81
2021/01/23 06:04:36;;;;;;;7.22;5.47;;;5.90;99.90;;;;;;5109959;27;20198;-79
2021/01/23 06:07:02;;;;;;;7.05;4.95;;;5.90;99.90;;;;;;5109600;28;20255;-82
2021/01/23 06:09:37;;;;;;;6.05;5.10;;;5.90;99.90;;;;;;5111134;27;20201;-82
2021/01/23 06:12:05;;;;;;;6.25;5.32;;;5.80;99.90;;;;;;5109180;28;20779;-82
2021/01/23 06:14:38;;;;;;;9.32;5.10;;;5.90;99.90;;;;;;5109004;28;20197;-82
2021/01/23 06:17:05;;;;;;;7.25;5.93;;;5.90;99.90;;;;;;5108085;28;20200;-82
2021/01/23 06:19:40;;;;;;;7.60;5.95;;;5.80;99.90;;;;;;5107233;28;20253;-82
2021/01/23 06:22:07;;;;;;;7.28;5.57;;;5.80;99.90;;;;;;5111157;27;20652;-82
2021/01/23 06:24:54;;;;;;;4.55;4.13;;;5.80;99.90;;;;;;5109753;28;20205;-82
2021/01/23 06:27:21;;;;;;;7.45;5.20;;;5.90;99.90;;;;;;5107478;28;20201;-83
2021/01/23 06:29:47;;;;;;;5.20;4.40;;;5.90;99.90;;;;;;5109828;28;20193;-80
2021/01/23 06:32:29;;;;;;;6.60;5.82;;;5.90;99.90;;;;;;5110194;28;20213;-80
2021/01/23 06:34:58;;;;;;;6.80;4.70;;;5.90;99.90;;;;;;5110146;28;20204;-79
2021/01/23 06:37:33;;;;;;;5.80;4.40;;;6.00;99.90;;;;;;5108918;28;20205;-79
2021/01/23 06:40:12;;;;;;;8.23;5.43;;;6.00;99.90;;;;;;5108440;28;20195;-80
2021/01/23 06:42:40;;;;;;;7.22;5.55;;;5.90;99.90;;;;;;5110383;28;20207;-80
2021/01/23 06:45:18;;;;;;;6.15;5.57;;;5.90;99.90;;;;;;5106491;28;20563;-79
2021/01/23 06:47:45;;;;;;;8.30;5.15;;;5.90;99.90;;;;;;5106456;28;20644;-79
2021/01/23 06:50:13;;;;;;;5.53;4.90;;;5.90;99.90;;;;;;5109412;28;20207;-78
2021/01/23 06:52:46;;;;;;;7.57;4.85;;;5.90;99.90;;;;;;5109212;28;20265;-80
2021/01/23 06:55:13;;;;;;;5.25;4.75;;;5.90;99.90;;;;;;5111068;28;20203;-80
2021/01/23 06:57:47;;;;;;;6.20;4.43;;;5.90;99.90;;;;;;5107443;28;20242;-80
2021/01/23 07:00:14;;;;;;;5.82;4.68;;;5.90;99.90;;;;;;5108963;28;20189;-80
2021/01/23 07:02:41;;;;;;;5.57;4.55;;;6.00;99.90;;;;;;5108811;28;20196;-80
2021/01/23 07:05:09;;;;;;;6.80;4.63;;;5.90;99.90;;;;;;5108952;28;20637;-80
2021/01/23 07:07:39;;;;;;;6.63;4.22;;;5.90;99.90;;;;;;5109169;28;20572;-80
2021/01/23 07:10:16;;;;;;;10.60;6.65;;;6.00;99.90;;;;;;5108596;28;20201;-80
2021/01/23 07:12:44;;;;;;;4.15;3.50;;;5.90;99.90;;;;;;5108780;28;20212;-80
2021/01/23 07:15:11;;;;;;;4.10;3.55;;;6.00;99.90;;;;;;5108603;28;20193;-80
2021/01/23 07:17:39;;;;;;;5.75;3.97;;;6.00;99.90;;;;;;5109048;28;20200;-78
2021/01/23 07:20:07;;;;;;;5.30;4.30;;;6.00;99.90;;;;;;5109137;28;20196;-80
2021/01/23 07:22:34;;;;;;;5.13;4.45;;;6.00;99.90;;;;;;5108875;28;20258;-80
2021/01/23 07:25:02;;;;;;;4.90;3.70;;;6.00;99.90;;;;;;5105866;28;20201;-80
2021/01/23 07:27:29;;;;;;;6.35;4.35;;;6.00;99.90;;;;;;5108919;28;20715;-80
2021/01/23 07:29:55;;;;;;;4.35;3.92;;;6.10;99.90;;;;;;5108813;28;20193;-80
2021/01/23 07:32:22;;;;;;;4.38;3.97;;;6.10;99.90;;;;;;5106939;28;20220;-80
2021/01/23 07:34:55;;;;;;;5.28;4.40;;;6.00;99.90;;;;;;5108378;28;20624;-79
2021/01/23 07:37:42;;;;;;;4.80;3.80;;;6.00;99.90;;;;;;5106039;28;20193;-78
2021/01/23 07:40:10;;;;;;;5.95;4.03;;;6.00;99.90;;;;;;5108780;28;20242;-77
2021/01/23 07:42:38;;;;;;;6.85;4.13;;;6.00;99.90;;;;;;5105703;28;20192;-79
2021/01/23 07:45:06;;;;;;;5.72;4.35;;;6.00;99.90;;;;;;5102313;28;20221;-79
2021/01/23 07:47:34;;;;;;;5.53;3.88;;;6.00;99.90;;;;;;5108922;28;20197;-76
2021/01/23 07:50:10;;;;;;;4.03;3.63;;;6.00;99.90;;;;;;5103030;28;20674;-77
2021/01/23 07:52:37;;;;;;;5.28;4.75;;;6.10;99.90;;;;;;5101840;28;20220;-77
2021/01/23 07:55:05;;;;;;;5.13;4.72;;;6.10;99.90;;;;;;5096530;28;20189;-76
2021/01/23 07:57:31;;;;;;;3.95;3.33;;;6.00;99.90;;;;;;5105948;28;20197;-78
2021/01/23 07:59:58;;;;;;;4.15;3.75;;;6.00;99.90;;;;;;5107801;28;20743;-75
2021/01/23 08:02:25;;;;;;;4.05;3.35;;;6.10;99.90;;;;;;5107493;28;20204;-75
2021/01/23 08:04:53;;;;;;;4.72;3.38;;;6.10;99.90;;;;;;5106258;28;20212;-76
2021/01/23 08:07:22;;;;;;;8.48;3.78;;;6.10;99.90;;;;;;5108119;28;20197;-76
2021/01/23 08:10:05;;;;;;;5.00;4.18;;;6.20;99.90;;;;;;5107042;28;20754;-77
2021/01/23 08:12:32;;;;;;;4.15;2.60;;;6.10;99.90;;;;;;5101985;28;20241;-76
2021/01/23 08:14:59;;;;;;;4.05;3.58;;;6.00;99.90;;;;;;5104977;27;20191;-75
2021/01/23 08:17:39;;;;;;;5.07;3.92;;;6.00;99.90;;;;;;5106317;28;20197;-74
2021/01/23 08:20:07;;;;;;;7.57;3.88;;;6.10;99.90;;;;;;5107762;27;20196;-78
2021/01/23 08:22:33;;;;;;;3.88;2.78;;;6.10;99.90;;;;;;5106064;28;20554;-79
2021/01/23 08:25:00;;;;;;;8.73;3.65;;;6.10;99.90;;;;;;5107770;28;20197;-79
2021/01/23 08:27:28;;;;;;;3.75;2.90;;;6.10;99.90;;;;;;5107643;28;20193;-78
2021/01/23 08:29:54;;;;;;;4.82;3.67;;;6.10;99.90;;;;;;5106232;28;20201;-77
2021/01/23 08:32:21;;;;;;;4.00;3.42;;;6.10;99.90;;;;;;5107936;28;20208;-81
2021/01/23 08:34:47;;;;;;;8.75;4.07;;;6.10;99.90;;;;;;5104361;28;20197;-81
2021/01/23 08:37:14;;;;;;;7.53;4.97;;;6.10;99.90;;;;;;5107691;28;20196;-84
2021/01/23 08:39:45;;;;;;;6.85;4.57;;;6.10;99.90;;;;;;5107135;28;20200;-83
2021/01/23 08:42:12;;;;;;;5.68;4.10;;;6.10;99.90;;;;;;5103766;28;20192;-83
2021/01/23 08:44:38;;;;;;;6.38;3.85;;;6.20;99.90;;;;;;5104504;28;20192;-82
2021/01/23 08:47:05;;;;;;;8.52;4.22;;;6.10;99.90;;;;;;5103881;28;20536;-82
2021/01/23 08:49:33;;;;;;;4.35;3.90;;;6.10;99.90;;;;;;5104402;28;20291;-81
2021/01/23 08:51:59;;;;;;;5.22;4.72;;;6.00;99.90;;;;;;5106273;28;20216;-82
2021/01/23 08:54:26;;;;;;;5.03;3.85;;;6.10;99.90;;;;;;5104987;28;20684;-82
2021/01/23 08:56:52;;;;;;;3.95;3.30;;;6.10;99.90;;;;;;5107260;28;20193;-82
2021/01/23 08:59:18;;;;;;;4.70;3.83;;;6.10;99.90;;;;;;5105670;28;20635;-82
2021/01/23 09:01:45;;;;;;;5.78;4.35;;;6.10;99.90;;;;;;5107443;28;20260;-82
2021/01/23 09:04:11;;;;;;;6.85;4.40;;;6.10;99.90;;;;;;5103035;28;20287;-82
2021/01/23 09:06:38;;;;;;;6.15;4.47;;;6.10;99.90;;;;;;5106348;28;20195;-81
2021/01/23 09:09:06;;;;;;;4.43;3.67;;;6.10;99.90;;;;;;5105865;28;20207;-82
2021/01/23 09:11:33;;;;;;;6.80;3.83;;;6.10;99.90;;;;;;5105587;28;20617;-82
2021/01/23 09:13:59;;;;;;;3.83;3.53;;;6.10;99.90;;;;;;5103853;28;20212;-81
2021/01/23 09:16:26;;;;;;;4.30;3.85;;;6.00;99.90;;;;;;5106635;28;20192;-81
2021/01/23 09:18:52;;;;;;;5.03;4.22;;;6.10;99.90;;;;;;5104851;28;20208;-81
2021/01/23 09:21:18;;;;;;;3.47;3.13;;;6.10;99.90;;;;;;5104045;28;20194;-81
2021/01/23 09:23:45;;;;;;;4.85;3.58;;;6.10;99.90;;;;;;5107195;28;20197;-81
2021/01/23 09:26:11;;;;;;;5.25;3.65;;;6.10;99.90;;;;;;5107498;28;20261;-81
2021/01/23 09:28:38;;;;;;;4.53;3.97;;;6.10;99.90;;;;;;5104739;28;20196;-81
2021/01/23 09:31:04;;;;;;;3.70;3.30;;;6.10;99.90;;;;;;5105625;28;20205;-81
2021/01/23 09:33:30;;;;;;;5.03;3.08;;;6.00;99.90;;;;;;5109899;28;20235;-81
2021/01/23 09:35:58;;;;;;;4.47;3.45;;;6.10;99.90;;;;;;5110010;28;20193;-81
2021/01/23 09:38:24;;;;;;;3.95;3.55;;;6.10;99.90;;;;;;5108315;28;20644;-81
2021/01/23 09:40:51;;;;;;;7.85;3.40;;;6.10;99.90;;;;;;5111464;28;20586;-81
2021/01/23 09:43:18;;;;;;;3.60;3.20;;;6.10;99.90;;;;;;5108121;28;20196;-82
2021/01/23 09:45:45;;;;;;;3.80;3.33;;;6.20;99.90;;;;;;5110071;28;22195;-82
2021/01/23 09:48:11;;;;;;;6.97;3.97;;;6.30;99.90;;;;;;5106259;28;20197;-85
2021/01/23 09:50:37;;;;;;;3.53;3.22;;;6.30;99.90;;;;;;5110368;28;20287;-87
2021/01/23 09:53:04;;;;;;;5.88;3.90;;;6.30;99.90;;;;;;5102998;28;20212;-82
2021/01/23 09:55:30;;;;;;;3.65;3.30;;;6.70;99.90;;;;;;5093469;28;20285;-79
2021/01/23 09:57:58;;;;;;;4.10;3.70;;;6.30;99.90;;;;;;5093201;28;20711;-82
2021/01/23 10:00:24;;;;;;;5.03;3.83;;;6.30;99.90;;;;;;5106572;28;20307;-83
2021/01/23 10:02:50;;;;;;;8.20;3.78;;;6.20;99.90;;;;;;5108707;27;20582;-82
2021/01/23 10:05:17;;;;;;;4.50;4.05;;;6.20;99.90;;;;;;5104024;28;20250;-80
2021/01/23 10:07:43;;;;;;;5.32;4.13;;;6.70;99.90;;;;;;5105331;28;20200;-78
2021/01/23 10:10:10;;;;;;;5.38;3.80;;;6.30;99.90;;;;;;5109548;28;20197;-83
2021/01/23 10:12:37;;;;;;;4.75;4.20;;;6.20;99.90;;;;;;5106419;28;20204;-77
2021/01/23 10:15:05;;;;;;;4.45;3.42;;;6.30;99.90;;;;;;5105323;28;20647;-80
2021/01/23 10:17:31;;;;;;;4.70;4.25;;;6.30;99.90;;;;;;5109295;28;20342;-83
2021/01/23 10:19:58;;;;;;;5.53;3.92;;;6.30;99.90;;;;;;5108905;28;20610;-82
2021/01/23 10:22:24;;;;;;;4.35;3.83;;;6.60;99.90;;;;;;5108983;28;20642;-83
2021/01/23 10:24:50;;;;;;;4.18;3.78;;;7.20;99.90;;;;;;5106786;28;20201;-81
2021/01/23 10:27:17;;;;;;;4.97;4.47;;;6.40;99.90;;;;;;5108422;28;20603;-80
2021/01/23 10:29:44;;;;;;;5.85;3.40;;;6.40;99.90;;;;;;5105405;28;20193;-80
2021/01/23 10:32:11;;;;;;;6.07;3.38;;;6.30;99.90;;;;;;5106513;28;20747;-78
2021/01/23 10:34:37;;;;;;;4.78;3.63;;;6.30;99.90;;;;;;5108048;28;20664;-79
2021/01/23 10:37:04;;;;;;;4.05;3.65;;;6.40;99.90;;;;;;5113073;28;20539;-79
2021/01/23 10:39:30;;;;;;;4.25;3.45;;;6.40;99.90;;;;;;5111213;28;20201;-80
2021/01/23 10:41:56;;;;;;;4.82;3.90;;;6.40;99.90;;;;;;5108151;28;20208;-81
2021/01/23 10:44:23;;;;;;;3.95;3.25;;;6.50;99.90;;;;;;5107554;28;20896;-80
2021/01/23 10:46:49;;;;;;;5.03;3.90;;;6.50;99.90;;;;;;5106628;28;20193;-80
2021/01/23 10:49:16;;;;;;;3.00;2.70;;;6.60;99.90;;;;;;5109009;28;20203;-77
2021/01/23 10:51:42;;;;;;;4.45;3.42;;;6.60;99.90;;;;;;5107329;28;20646;-81
2021/01/23 10:54:09;;;;;;;5.30;3.58;;;6.60;99.90;;;;;;5109908;28;20221;-79
2021/01/23 10:56:36;;;;;;;5.38;4.80;;;6.50;99.90;;;;;;5098420;28;20274;-80
2021/01/23 10:59:02;;;;;;;5.53;4.97;;;6.60;99.90;;;;;;5107103;28;20641;-80
2021/01/23 11:01:29;;;;;;;10.02;4.47;;;6.80;99.90;;;;;;5109500;28;20672;-80
2021/01/23 11:03:56;;;;;;;5.85;4.28;;;6.80;99.90;;;;;;5106593;28;20196;-80
2021/01/23 11:06:23;;;;;;;4.97;4.32;;;6.80;99.90;;;;;;5108427;28;20202;-80
2021/01/23 11:08:49;;;;;;;5.75;4.53;;;6.80;99.90;;;;;;5103846;28;20193;-80
2021/01/23 11:11:16;;;;;;;6.50;5.32;;;6.80;99.90;;;;;;5103737;28;20889;-80
2021/01/23 11:13:42;;;;;;;5.30;4.03;;;6.80;99.90;;;;;;5105535;28;20216;-80
2021/01/23 11:16:08;;;;;;;5.68;4.78;;;6.80;99.90;;;;;;5102643;28;20193;-77
2021/01/23 11:18:35;;;;;;;5.43;4.88;;;6.60;99.90;;;;;;5106058;28;20228;-76
2021/01/23 11:21:01;;;;;;;6.32;4.38;;;6.70;99.90;;;;;;5106451;28;20219;-78
2021/01/23 11:23:28;;;;;;;5.60;4.15;;;6.70;99.90;;;;;;5108170;28;20188;-77
2021/01/23 11:25:55;;;;;;;5.03;3.67;;;6.80;99.90;;;;;;5103395;27;20761;-80
2021/01/23 11:28:21;;;;;;;4.03;3.45;;;6.80;99.90;;;;;;5105216;27;20672;-80
2021/01/23 11:30:48;;;;;;;4.18;3.53;;;6.80;99.90;;;;;;5106104;27;20265;-79
2021/01/23 11:33:15;;;;;;;5.13;4.25;;;6.80;99.90;;;;;;5108932;27;20333;-79
2021/01/23 11:35:41;;;;;;;4.53;3.80;;;6.80;99.90;;;;;;5106449;27;20201;-76
2021/01/23 11:38:07;;;;;;;4.13;3.08;;;6.70;99.90;;;;;;5105841;28;20590;-78
2021/01/23 11:40:34;;;;;;;4.47;3.42;;;6.70;99.90;;;;;;5104889;28;20249;-77
2021/01/23 11:43:00;;;;;;;4.90;3.42;;;6.70;99.90;;;;;;5105598;27;20213;-79
2021/01/23 11:45:27;;;;;;;4.55;3.15;;;6.70;99.90;;;;;;5107266;27;20253;-76
2021/01/23 11:47:53;;;;;;;3.95;2.80;;;6.70;99.90;;;;;;5105764;28;20258;-77
2021/01/23 11:50:19;;;;;;;3.80;2.33;;;6.80;99.90;;;;;;5107085;28;20193;-77
2021/01/23 11:52:46;;;;;;;6.95;3.70;;;6.80;99.90;;;;;;5100097;28;20216;-82
2021/01/23 11:55:12;;;;;;;3.78;2.97;;;6.80;99.90;;;;;;5099685;28;20741;-77
2021/01/23 11:57:39;;;;;;;10.15;2.85;;;6.80;99.90;;;;;;5094819;28;20197;-81
2021/01/23 12:00:07;;;;;;;4.45;2.75;;;6.80;99.90;;;;;;5108686;28;20328;-81
2021/01/23 12:02:33;;;;;;;5.95;3.20;;;6.70;99.90;;;;;;5107904;28;20247;-79
2021/01/23 12:04:59;;;;;;;4.55;2.30;;;6.80;99.90;;;;;;5103770;28;20208;-82
2021/01/23 12:07:26;;;;;;;3.42;2.80;;;6.90;99.90;;;;;;5103482;28;20253;-80
2021/01/23 12:09:53;;;;;;;3.30;2.97;;;6.90;99.90;;;;;;5107197;28;20292;-78
2021/01/23 12:12:19;;;;;;;4.80;3.03;;;6.80;99.90;;;;;;5107822;28;20552;-81
2021/01/23 12:14:46;;;;;;;2.90;2.40;;;6.90;99.90;;;;;;5106142;28;20591;-82
2021/01/23 12:17:13;;;;;;;3.55;2.05;;;6.80;99.90;;;;;;5103741;28;20215;-81
2021/01/23 12:19:41;;;;;;;2.67;2.03;;;6.80;99.90;;;;;;5106847;28;20205;-83
2021/01/23 12:22:08;;;;;;;9.50;3.28;;;6.80;99.90;;;;;;5106076;28;20196;-79
2021/01/23 12:24:34;;;;;;;4.80;2.47;;;6.80;99.90;;;;;;5107887;28;20208;-78
2021/01/23 12:27:01;;;;;;;4.20;2.10;;;6.80;99.90;;;;;;5106101;28;20201;-83
2021/01/23 12:29:27;;;;;;;2.67;2.47;;;6.90;99.90;;;;;;5107733;28;20207;-81
2021/01/23 12:31:55;;;;;;;3.33;2.38;;;6.90;99.90;;;;;;5107800;28;20196;-82
2021/01/23 12:34:22;;;;;;;2.13;1.92;;;6.80;99.90;;;;;;5107617;28;20253;-83
2021/01/23 12:36:48;;;;;;;3.85;2.25;;;6.80;99.90;;;;;;5107458;28;20427;-80
2021/01/23 12:39:14;;;;;;;3.17;2.67;;;6.90;99.90;;;;;;5106163;28;20216;-81
2021/01/23 12:41:41;;;;;;;4.70;2.05;;;6.90;99.90;;;;;;5106579;28;20268;-81
2021/01/23 12:44:07;;;;;;;4.50;3.50;;;6.80;99.90;;;;;;5107532;28;20539;-82
2021/01/23 12:46:33;;;;;;;2.35;2.15;;;6.90;99.90;;;;;;5103804;28;20220;-82
2021/01/23 12:49:00;;;;;;;3.08;2.78;;;6.90;99.90;;;;;;5107996;28;20726;-82
2021/01/23 12:51:26;;;;;;;2.78;2.22;;;6.80;99.90;;;;;;5106878;28;20196;-82
2021/01/23 12:53:53;;;;;;;2.60;2.40;;;6.80;99.90;;;;;;5106941;28;20311;-82
2021/01/23 12:56:19;;;;;;;2.65;2.45;;;6.90;99.90;;;;;;5107376;28;20239;-81
2021/01/23 12:58:45;;;;;;;2.72;2.53;;;6.90;99.90;;;;;;5104424;28;20197;-82